Time;durP1;ratioP1;P1;durP2;ratioP2;P2;SDS_P1;SDS_P2;PMS_P1;PMS_P2;Temp;Humidity;BMP_temperature;BMP_pressure;BME280_temperature;BME280_humidity;BME280_pressure;Samples;Min_cycle;Max_cycle;Signal;HPM_P1;HPM_P2
2021/11/10 00:00:29;;;;;;;;;;;;;;;;;;2121267;27;19923;-47
2021/11/10 00:01:29;;;;;;;;;;;;;;;;;;2123563;28;19939;-47
2021/11/10 00:02:30;;;;;;;;;;;;;;;;;;2123617;28;19923;-46
2021/11/10 00:03:31;;;;;;;;;;;;;;;;;;2122536;27;19954;-46
2021/11/10 00:04:32;;;;;;;;;;;;;;;;;;2115258;28;20338;-47
2021/11/10 00:05:33;;;;;;;;;;;;;;;;;;2115065;28;19962;-46
2021/11/10 00:06:34;;;;;;;;;;;;;;;;;;2120147;27;20368;-47
2021/11/10 00:07:35;;;;;;;;;;;;;;;;;;2123553;28;19930;-47
2021/11/10 00:08:36;;;;;;;;;;;;;;;;;;2123722;28;19930;-47
2021/11/10 00:09:37;;;;;;;;;;;;;;;;;;2121144;27;19927;-46
2021/11/10 00:10:38;;;;;;;;;;;;;;;;;;2123695;28;19927;-47
2021/11/10 00:11:39;;;;;;;;;;;;;;;;;;2123162;28;19923;-46
2021/11/10 00:12:40;;;;;;;;;;;;;;;;;;2123035;27;19931;-46
2021/11/10 00:13:40;;;;;;;;;;;;;;;;;;2114959;28;19927;-47
2021/11/10 00:14:41;;;;;;;;;;;;;;;;;;2115716;28;19928;-47
2021/11/10 00:15:42;;;;;;;;;;;;;;;;;;2120581;27;20296;-47
2021/11/10 00:16:43;;;;;;;;;;;;;;;;;;2123446;28;19958;-46
2021/11/10 00:17:44;;;;;;;;;;;;;;;;;;2122727;28;19923;-46
2021/11/10 00:18:44;;;;;;;;;;;;;;;;;;2126402;27;19923;-47
2021/11/10 00:19:46;;;;;;;;;;;;;;;;;;2132200;27;19930;-47
2021/11/10 00:20:46;;;;;;;;;;;;;;;;;;2128186;27;20018;-48
2021/11/10 00:21:47;;;;;;;;;;;;;;;;;;2122073;27;20032;-47
2021/11/10 00:22:48;;;;;;;;;;;;;;;;;;2114977;28;19923;-47
2021/11/10 00:23:49;;;;;;;;;;;;;;;;;;2116608;27;20063;-47
2021/11/10 00:24:50;;;;;;;;;;;;;;;;;;2122360;27;20303;-47
2021/11/10 00:25:51;;;;;;;;;;;;;;;;;;2123426;28;19923;-48
2021/11/10 00:26:52;;;;;;;;;;;;;;;;;;2122395;27;20362;-47
2021/11/10 00:27:52;;;;;;;;;;;;;;;;;;2129529;27;19946;-47
2021/11/10 00:28:53;;;;;;;;;;;;;;;;;;2131914;27;20390;-48
2021/11/10 00:29:54;;;;;;;;;;;;;;;;;;2125125;27;19953;-47
2021/11/10 00:30:55;;;;;;;;;;;;;;;;;;2122112;28;19931;-47
2021/11/10 00:31:59;;;;;;;;;;;;;;;;;;2123450;28;19924;-47
2021/11/10 00:33:00;;;;;;;;;;;;;;;;;;2121636;27;19977;-47
2021/11/10 00:34:01;;;;;;;;;;;;;;;;;;2131514;27;19922;-47
2021/11/10 00:35:02;;;;;;;;;;;;;;;;;;2131878;27;19923;-47
2021/11/10 00:36:03;;;;;;;;;;;;;;;;;;2126902;27;19927;-49
2021/11/10 00:37:03;;;;;;;;;;;;;;;;;;2115643;28;19931;-47
2021/11/10 00:38:04;;;;;;;;;;;;;;;;;;2115030;28;19930;-48
2021/11/10 00:39:05;;;;;;;;;;;;;;;;;;2122422;27;20329;-47
2021/11/10 00:40:06;;;;;;;;;;;;;;;;;;2115021;28;19946;-47
2021/11/10 00:41:07;;;;;;;;;;;;;;;;;;2114940;28;19935;-48
2021/11/10 00:42:08;;;;;;;;;;;;;;;;;;2122829;27;20260;-48
2021/11/10 00:43:08;;;;;;;;;;;;;;;;;;2114743;28;19931;-47
2021/11/10 00:44:09;;;;;;;;;;;;;;;;;;2114812;28;19952;-47
2021/11/10 00:45:10;;;;;;;;;;;;;;;;;;2122730;27;19929;-46
2021/11/10 00:46:11;;;;;;;;;;;;;;;;;;2114853;28;19923;-48
2021/11/10 00:47:12;;;;;;;;;;;;;;;;;;2114662;28;19962;-48
2021/11/10 00:48:13;;;;;;;;;;;;;;;;;;2120130;27;19924;-48
2021/11/10 00:49:13;;;;;;;;;;;;;;;;;;2123380;28;19927;-48
2021/11/10 00:50:14;;;;;;;;;;;;;;;;;;2122869;28;19924;-48
2021/11/10 00:51:15;;;;;;;;;;;;;;;;;;2122675;27;20002;-47
2021/11/10 00:52:16;;;;;;;;;;;;;;;;;;2114717;28;20382;-49
2021/11/10 00:53:17;;;;;;;;;;;;;;;;;;2115581;28;19928;-48
2021/11/10 00:54:18;;;;;;;;;;;;;;;;;;2121952;27;19930;-49
2021/11/10 00:55:18;;;;;;;;;;;;;;;;;;2114735;28;19923;-48
2021/11/10 00:56:19;;;;;;;;;;;;;;;;;;2115497;28;19924;-48
2021/11/10 00:57:20;;;;;;;;;;;;;;;;;;2121904;27;19927;-48
2021/11/10 00:58:21;;;;;;;;;;;;;;;;;;2123458;28;19930;-48
2021/11/10 00:59:21;;;;;;;;;;;;;;;;;;2121524;28;20192;-47
2021/11/10 01:00:23;;;;;;;;;;;;;;;;;;2117896;28;19959;-49
2021/11/10 01:01:24;;;;;;;;;;;;;;;;;;2114799;28;20014;-48
2021/11/10 01:02:25;;;;;;;;;;;;;;;;;;2115800;28;20306;-47
2021/11/10 01:03:27;;;;;;;;;;;;;;;;;;2125661;27;19931;-48
2021/11/10 01:04:28;;;;;;;;;;;;;;;;;;2132001;27;20011;-48
2021/11/10 01:05:29;;;;;;;;;;;;;;;;;;2126257;27;19923;-48
2021/11/10 01:06:31;;;;;;;;;;;;;;;;;;2121035;27;19923;-47
2021/11/10 01:07:32;;;;;;;;;;;;;;;;;;2122545;28;20004;-43
2021/11/10 01:08:33;;;;;;;;;;;;;;;;;;2121151;28;19930;-43
2021/11/10 01:09:39;;;;;;;;;;;;;;;;;;2116531;28;20010;-43
2021/11/10 01:10:40;;;;;;;;;;;;;;;;;;2114727;28;20288;-43
2021/11/10 01:11:41;;;;;;;;;;;;;;;;;;2117503;27;19923;-43
2021/11/10 01:12:42;;;;;;;;;;;;;;;;;;2123028;28;20268;-43
2021/11/10 01:13:43;;;;;;;;;;;;;;;;;;2123166;28;19923;-43
2021/11/10 01:14:44;;;;;;;;;;;;;;;;;;2124179;27;20149;-43
2021/11/10 01:15:45;;;;;;;;;;;;;;;;;;2123363;28;19930;-43
2021/11/10 01:16:45;;;;;;;;;;;;;;;;;;2123164;28;19946;-43
2021/11/10 01:17:46;;;;;;;;;;;;;;;;;;2123378;27;20387;-43
2021/11/10 01:18:47;;;;;;;;;;;;;;;;;;2114688;28;19931;-43
2021/11/10 01:19:49;;;;;;;;;;;;;;;;;;2114637;28;19931;-43
2021/11/10 01:20:49;;;;;;;;;;;;;;;;;;2120646;27;20006;-43
2021/11/10 01:21:50;;;;;;;;;;;;;;;;;;2123077;28;19923;-43
2021/11/10 01:22:51;;;;;;;;;;;;;;;;;;2122762;28;19931;-43
2021/11/10 01:23:52;;;;;;;;;;;;;;;;;;2121706;27;20360;-43
2021/11/10 01:24:53;;;;;;;;;;;;;;;;;;2123272;28;19934;-43
2021/11/10 01:25:54;;;;;;;;;;;;;;;;;;2122621;28;20379;-43
2021/11/10 01:26:54;;;;;;;;;;;;;;;;;;2117815;27;19927;-43
2021/11/10 01:27:55;;;;;;;;;;;;;;;;;;2116319;28;19927;-43
2021/11/10 01:28:56;;;;;;;;;;;;;;;;;;2117901;27;19931;-43
2021/11/10 01:29:59;;;;;;;;;;;;;;;;;;2125528;27;20462;-43
2021/11/10 01:31:00;;;;;;;;;;;;;;;;;;2124716;28;20154;-43
2021/11/10 01:32:01;;;;;;;;;;;;;;;;;;2123378;27;19924;-43
2021/11/10 01:33:02;;;;;;;;;;;;;;;;;;2124372;28;19923;-43
2021/11/10 01:34:07;;;;;;;;;;;;;;;;;;2124751;28;19931;-44
2021/11/10 01:35:08;;;;;;;;;;;;;;;;;;2122597;27;20021;-43
2021/11/10 01:36:09;;;;;;;;;;;;;;;;;;2133167;27;19927;-43
2021/11/10 01:37:10;;;;;;;;;;;;;;;;;;2133009;27;19923;-44
2021/11/10 01:38:10;;;;;;;;;;;;;;;;;;2127156;27;19962;-43
2021/11/10 01:39:12;;;;;;;;;;;;;;;;;;2116232;28;19967;-43
2021/11/10 01:40:13;;;;;;;;;;;;;;;;;;2116046;28;19930;-43
2021/11/10 01:41:14;;;;;;;;;;;;;;;;;;2122441;27;19931;-43
2021/11/10 01:42:15;;;;;;;;;;;;;;;;;;2124480;28;20290;-44
2021/11/10 01:43:16;;;;;;;;;;;;;;;;;;2124625;28;19930;-43
2021/11/10 01:44:17;;;;;;;;;;;;;;;;;;2123145;27;19924;-43
2021/11/10 01:45:17;;;;;;;;;;;;;;;;;;2124542;28;19930;-43
2021/11/10 01:46:18;;;;;;;;;;;;;;;;;;2123819;28;19952;-43
2021/11/10 01:47:19;;;;;;;;;;;;;;;;;;2121522;27;19933;-43
2021/11/10 01:48:20;;;;;;;;;;;;;;;;;;2124646;28;19946;-43
2021/11/10 01:49:21;;;;;;;;;;;;;;;;;;2124200;28;20004;-43
2021/11/10 01:50:22;;;;;;;;;;;;;;;;;;2122588;27;19927;-43
2021/11/10 01:51:24;;;;;;;;;;;;;;;;;;2124562;28;20337;-43
2021/11/10 01:52:25;;;;;;;;;;;;;;;;;;2123613;28;20013;-44
2021/11/10 01:53:26;;;;;;;;;;;;;;;;;;2123185;27;19928;-43
2021/11/10 01:54:27;;;;;;;;;;;;;;;;;;2124651;28;19967;-43
2021/11/10 01:55:28;;;;;;;;;;;;;;;;;;2122742;28;20013;-43
2021/11/10 01:56:28;;;;;;;;;;;;;;;;;;2127057;27;19929;-43
2021/11/10 01:57:30;;;;;;;;;;;;;;;;;;2133048;27;19923;-44
2021/11/10 01:58:31;;;;;;;;;;;;;;;;;;2128483;27;20185;-43
2021/11/10 01:59:31;;;;;;;;;;;;;;;;;;2122889;27;19959;-43
2021/11/10 02:00:32;;;;;;;;;;;;;;;;;;2124459;28;19969;-43
2021/11/10 02:01:34;;;;;;;;;;;;;;;;;;2123557;27;20334;-43
2021/11/10 02:02:34;;;;;;;;;;;;;;;;;;2122863;28;19976;-43
2021/11/10 02:03:35;;;;;;;;;;;;;;;;;;2122906;28;20004;-43
2021/11/10 02:04:36;;;;;;;;;;;;;;;;;;2124222;27;20020;-43
2021/11/10 02:05:37;;;;;;;;;;;;;;;;;;2119578;27;19934;-43
2021/11/10 02:06:38;;;;;;;;;;;;;;;;;;2115927;28;20318;-43
2021/11/10 02:07:39;;;;;;;;;;;;;;;;;;2119864;27;19924;-43
2021/11/10 02:08:39;;;;;;;;;;;;;;;;;;2118250;27;19931;-43
2021/11/10 02:09:40;;;;;;;;;;;;;;;;;;2116046;28;19951;-43
2021/11/10 02:10:41;;;;;;;;;;;;;;;;;;2119426;27;19930;-43
2021/11/10 02:11:42;;;;;;;;;;;;;;;;;;2124011;28;19927;-43
2021/11/10 02:12:43;;;;;;;;;;;;;;;;;;2124414;28;19946;-43
2021/11/10 02:13:44;;;;;;;;;;;;;;;;;;2121999;27;20388;-43
2021/11/10 02:14:45;;;;;;;;;;;;;;;;;;2124394;28;19924;-43
2021/11/10 02:15:46;;;;;;;;;;;;;;;;;;2124385;28;19924;-43
2021/11/10 02:16:46;;;;;;;;;;;;;;;;;;2125090;27;20413;-43
2021/11/10 02:17:47;;;;;;;;;;;;;;;;;;2115803;28;19923;-43
2021/11/10 02:18:48;;;;;;;;;;;;;;;;;;2115828;28;19931;-43
2021/11/10 02:19:50;;;;;;;;;;;;;;;;;;2122960;27;19923;-43
2021/11/10 02:20:51;;;;;;;;;;;;;;;;;;2133043;27;20013;-43
2021/11/10 02:21:53;;;;;;;;;;;;;;;;;;2132798;27;19923;-43
2021/11/10 02:22:54;;;;;;;;;;;;;;;;;;2121002;27;20022;-43
2021/11/10 02:23:59;;;;;;;;;;;;;;;;;;2124302;28;20415;-43
2021/11/10 02:25:01;;;;;;;;;;;;;;;;;;2123734;28;20072;-43
2021/11/10 02:26:05;;;;;;;;;;;;;;;;;;2122435;27;20014;-43
2021/11/10 02:27:14;;;;;;;;;;;;;;;;;;2115731;28;20060;-44
2021/11/10 02:28:15;;;;;;;;;;;;;;;;;;2118593;27;20327;-43
2021/11/10 02:29:15;;;;;;;;;;;;;;;;;;2120660;27;19931;-43
2021/11/10 02:30:16;;;;;;;;;;;;;;;;;;2115691;28;20506;-43
2021/11/10 02:31:18;;;;;;;;;;;;;;;;;;2119180;27;19977;-43
2021/11/10 02:32:19;;;;;;;;;;;;;;;;;;2122731;28;19950;-43
2021/11/10 02:33:20;;;;;;;;;;;;;;;;;;2124268;28;19923;-43
2021/11/10 02:34:21;;;;;;;;;;;;;;;;;;2122735;27;19927;-43
2021/11/10 02:35:22;;;;;;;;;;;;;;;;;;2123387;28;19924;-43
2021/11/10 02:36:22;;;;;;;;;;;;;;;;;;2124181;28;19924;-43
2021/11/10 02:37:23;;;;;;;;;;;;;;;;;;2122153;27;19923;-43
2021/11/10 02:38:24;;;;;;;;;;;;;;;;;;2123418;27;19931;-42
2021/11/10 02:39:25;;;;;;;;;;;;;;;;;;2123643;28;19983;-42
2021/11/10 02:40:26;;;;;;;;;;;;;;;;;;2122839;27;20288;-42
2021/11/10 02:41:27;;;;;;;;;;;;;;;;;;2124169;28;19927;-42
2021/11/10 02:42:28;;;;;;;;;;;;;;;;;;2124030;28;20358;-42
2021/11/10 02:43:29;;;;;;;;;;;;;;;;;;2121597;28;19923;-42
2021/11/10 02:44:30;;;;;;;;;;;;;;;;;;2115769;28;19931;-42
2021/11/10 02:45:30;;;;;;;;;;;;;;;;;;2115693;28;19947;-42
2021/11/10 02:46:32;;;;;;;;;;;;;;;;;;2122700;27;20287;-42
2021/11/10 02:47:32;;;;;;;;;;;;;;;;;;2115553;28;19923;-43
2021/11/10 02:48:33;;;;;;;;;;;;;;;;;;2115618;28;20265;-42
2021/11/10 02:49:34;;;;;;;;;;;;;;;;;;2123925;27;19923;-42
2021/11/10 02:50:35;;;;;;;;;;;;;;;;;;2132620;27;20447;-42
2021/11/10 02:51:36;;;;;;;;;;;;;;;;;;2131162;27;19930;-42
2021/11/10 02:52:37;;;;;;;;;;;;;;;;;;2121212;27;19950;-42
2021/11/10 02:53:38;;;;;;;;;;;;;;;;;;2124333;28;19923;-42
2021/11/10 02:54:39;;;;;;;;;;;;;;;;;;2123709;28;20018;-42
2021/11/10 02:55:40;;;;;;;;;;;;;;;;;;2122195;27;20276;-42
2021/11/10 02:56:40;;;;;;;;;;;;;;;;;;2123993;28;19934;-42
2021/11/10 02:57:41;;;;;;;;;;;;;;;;;;2123110;28;19939;-41
2021/11/10 02:58:42;;;;;;;;;;;;;;;;;;2123906;27;19931;-41
2021/11/10 02:59:43;;;;;;;;;;;;;;;;;;2124163;28;19924;-41
2021/11/10 03:00:44;;;;;;;;;;;;;;;;;;2122426;28;19924;-42
2021/11/10 03:01:45;;;;;;;;;;;;;;;;;;2126553;27;19923;-42
2021/11/10 03:02:46;;;;;;;;;;;;;;;;;;2132578;27;19930;-42
2021/11/10 03:03:50;;;;;;;;;;;;;;;;;;2118136;27;19924;-42
2021/11/10 03:04:51;;;;;;;;;;;;;;;;;;2129871;27;20355;-42
2021/11/10 03:05:52;;;;;;;;;;;;;;;;;;2132530;27;19923;-42
2021/11/10 03:06:53;;;;;;;;;;;;;;;;;;2127734;27;19959;-42
2021/11/10 03:07:54;;;;;;;;;;;;;;;;;;2119138;27;19931;-43
2021/11/10 03:08:55;;;;;;;;;;;;;;;;;;2115515;28;20312;-43
2021/11/10 03:09:56;;;;;;;;;;;;;;;;;;2120611;27;19931;-43
2021/11/10 03:10:57;;;;;;;;;;;;;;;;;;2118004;27;20357;-42
2021/11/10 03:12:00;;;;;;;;;;;;;;;;;;2115504;28;19967;-42
2021/11/10 03:13:01;;;;;;;;;;;;;;;;;;2117644;28;19923;-42
2021/11/10 03:14:01;;;;;;;;;;;;;;;;;;2122806;28;19931;-42
2021/11/10 03:15:02;;;;;;;;;;;;;;;;;;2124084;28;19923;-42
2021/11/10 03:16:03;;;;;;;;;;;;;;;;;;2124857;27;19931;-42
2021/11/10 03:17:04;;;;;;;;;;;;;;;;;;2115664;28;20007;-42
2021/11/10 03:18:05;;;;;;;;;;;;;;;;;;2115437;28;20395;-42
2021/11/10 03:19:17;;;;;;;;;;;;;;;;;;2121640;27;19965;-42
2021/11/10 03:20:18;;;;;;;;;;;;;;;;;;2115517;28;19932;-42
2021/11/10 03:21:19;;;;;;;;;;;;;;;;;;2115860;28;20025;-42
2021/11/10 03:22:20;;;;;;;;;;;;;;;;;;2126296;27;19937;-43
2021/11/10 03:23:21;;;;;;;;;;;;;;;;;;2132418;27;19923;-42
2021/11/10 03:24:22;;;;;;;;;;;;;;;;;;2129901;27;20439;-43
2021/11/10 03:25:23;;;;;;;;;;;;;;;;;;2126771;27;19923;-43
2021/11/10 03:26:24;;;;;;;;;;;;;;;;;;2132418;27;19927;-43
2021/11/10 03:27:25;;;;;;;;;;;;;;;;;;2128655;27;19923;-43
2021/11/10 03:28:26;;;;;;;;;;;;;;;;;;2122563;27;20372;-42
2021/11/10 03:29:27;;;;;;;;;;;;;;;;;;2115399;28;19928;-42
2021/11/10 03:30:27;;;;;;;;;;;;;;;;;;2116576;27;19923;-42
2021/11/10 03:31:28;;;;;;;;;;;;;;;;;;2121894;27;19930;-42
2021/11/10 03:32:29;;;;;;;;;;;;;;;;;;2115161;28;20014;-43
2021/11/10 03:33:30;;;;;;;;;;;;;;;;;;2116639;27;20006;-42
2021/11/10 03:34:31;;;;;;;;;;;;;;;;;;2129738;27;19930;-42
2021/11/10 03:35:32;;;;;;;;;;;;;;;;;;2132441;27;19927;-42
2021/11/10 03:36:32;;;;;;;;;;;;;;;;;;2127595;27;20300;-42
2021/11/10 03:37:34;;;;;;;;;;;;;;;;;;2119179;27;20388;-42
2021/11/10 03:38:34;;;;;;;;;;;;;;;;;;2115292;28;20006;-42
2021/11/10 03:39:35;;;;;;;;;;;;;;;;;;2117928;28;19931;-43
2021/11/10 03:40:37;;;;;;;;;;;;;;;;;;2131236;27;20385;-42
2021/11/10 03:41:37;;;;;;;;;;;;;;;;;;2132305;27;19927;-42
2021/11/10 03:42:38;;;;;;;;;;;;;;;;;;2124294;27;20008;-42
2021/11/10 03:43:39;;;;;;;;;;;;;;;;;;2131272;27;19923;-42
2021/11/10 03:44:41;;;;;;;;;;;;;;;;;;2132204;27;20013;-42
2021/11/10 03:45:42;;;;;;;;;;;;;;;;;;2123457;27;20396;-42
2021/11/10 03:46:45;;;;;;;;;;;;;;;;;;2123739;28;19923;-42
2021/11/10 03:47:46;;;;;;;;;;;;;;;;;;2123791;28;19958;-42
2021/11/10 03:48:46;;;;;;;;;;;;;;;;;;2121641;27;19931;-42
2021/11/10 03:49:47;;;;;;;;;;;;;;;;;;2132038;27;20071;-42
2021/11/10 03:50:48;;;;;;;;;;;;;;;;;;2132209;27;19923;-43
2021/11/10 03:51:49;;;;;;;;;;;;;;;;;;2122833;27;20360;-42
2021/11/10 03:52:50;;;;;;;;;;;;;;;;;;2123724;28;20036;-42
2021/11/10 03:53:51;;;;;;;;;;;;;;;;;;2123847;28;19924;-43
2021/11/10 03:54:51;;;;;;;;;;;;;;;;;;2122224;27;20375;-43
2021/11/10 03:55:52;;;;;;;;;;;;;;;;;;2115116;28;19924;-42
2021/11/10 03:56:53;;;;;;;;;;;;;;;;;;2114679;28;19981;-42
2021/11/10 03:57:54;;;;;;;;;;;;;;;;;;2121091;27;20287;-42
2021/11/10 03:58:55;;;;;;;;;;;;;;;;;;2123747;28;19934;-42
2021/11/10 03:59:55;;;;;;;;;;;;;;;;;;2123124;28;19930;-42
2021/11/10 04:00:56;;;;;;;;;;;;;;;;;;2121759;27;19956;-42
2021/11/10 04:02:01;;;;;;;;;;;;;;;;;;2123533;28;19924;-42
2021/11/10 04:03:02;;;;;;;;;;;;;;;;;;2119425;28;19928;-43
2021/11/10 04:04:03;;;;;;;;;;;;;;;;;;2122932;27;20328;-42
2021/11/10 04:05:03;;;;;;;;;;;;;;;;;;2123748;28;20272;-42
2021/11/10 04:06:04;;;;;;;;;;;;;;;;;;2122087;27;19924;-42
2021/11/10 04:07:05;;;;;;;;;;;;;;;;;;2122501;27;19927;-43
2021/11/10 04:08:06;;;;;;;;;;;;;;;;;;2123532;28;19930;-42
2021/11/10 04:09:07;;;;;;;;;;;;;;;;;;2122542;27;19923;-42
2021/11/10 04:10:08;;;;;;;;;;;;;;;;;;2122103;28;19927;-42
2021/11/10 04:11:08;;;;;;;;;;;;;;;;;;2123685;28;20391;-42
2021/11/10 04:12:09;;;;;;;;;;;;;;;;;;2122478;27;19932;-43
2021/11/10 04:13:10;;;;;;;;;;;;;;;;;;2122074;28;19937;-42
2021/11/10 04:14:11;;;;;;;;;;;;;;;;;;2123690;28;20426;-43
2021/11/10 04:15:12;;;;;;;;;;;;;;;;;;2122344;27;19924;-42
2021/11/10 04:16:13;;;;;;;;;;;;;;;;;;2122405;28;19976;-42
2021/11/10 04:17:14;;;;;;;;;;;;;;;;;;2123529;28;19931;-42
2021/11/10 04:18:15;;;;;;;;;;;;;;;;;;2121105;27;19930;-42
2021/11/10 04:19:17;;;;;;;;;;;;;;;;;;2123418;28;19923;-42
2021/11/10 04:20:18;;;;;;;;;;;;;;;;;;2123606;28;20435;-42
2021/11/10 04:21:19;;;;;;;;;;;;;;;;;;2121910;27;20008;-43
2021/11/10 04:22:20;;;;;;;;;;;;;;;;;;2131840;27;19922;-44
2021/11/10 04:23:21;;;;;;;;;;;;;;;;;;2132160;27;20013;-42
2021/11/10 04:24:22;;;;;;;;;;;;;;;;;;2125587;27;20376;-42
2021/11/10 04:25:23;;;;;;;;;;;;;;;;;;2123411;28;19923;-42
2021/11/10 04:26:23;;;;;;;;;;;;;;;;;;2123530;28;19934;-43
2021/11/10 04:27:24;;;;;;;;;;;;;;;;;;2122887;27;20150;-42
2021/11/10 04:28:25;;;;;;;;;;;;;;;;;;2132008;27;19923;-42
2021/11/10 04:29:26;;;;;;;;;;;;;;;;;;2132027;27;19931;-42
2021/11/10 04:30:27;;;;;;;;;;;;;;;;;;2122559;27;19934;-42
2021/11/10 04:31:28;;;;;;;;;;;;;;;;;;2123559;28;20341;-42
2021/11/10 04:32:28;;;;;;;;;;;;;;;;;;2123092;28;19924;-42
2021/11/10 04:33:29;;;;;;;;;;;;;;;;;;2124565;27;19930;-42
2021/11/10 04:34:30;;;;;;;;;;;;;;;;;;2132032;27;19923;-42
2021/11/10 04:35:31;;;;;;;;;;;;;;;;;;2130351;27;19934;-43
2021/11/10 04:36:33;;;;;;;;;;;;;;;;;;2124232;27;20322;-42
2021/11/10 04:37:33;;;;;;;;;;;;;;;;;;2131861;27;19972;-42
2021/11/10 04:38:34;;;;;;;;;;;;;;;;;;2128861;27;19991;-42
2021/11/10 04:39:35;;;;;;;;;;;;;;;;;;2121955;27;20183;-42
2021/11/10 04:40:36;;;;;;;;;;;;;;;;;;2114908;28;19923;-42
2021/11/10 04:41:37;;;;;;;;;;;;;;;;;;2115595;27;19931;-42
2021/11/10 04:42:38;;;;;;;;;;;;;;;;;;2122001;27;20402;-42
2021/11/10 04:43:39;;;;;;;;;;;;;;;;;;2123385;28;19924;-42
2021/11/10 04:44:40;;;;;;;;;;;;;;;;;;2121287;28;19923;-42
2021/11/10 04:45:41;;;;;;;;;;;;;;;;;;2118068;28;19924;-43
2021/11/10 04:46:42;;;;;;;;;;;;;;;;;;2114837;28;20031;-42
2021/11/10 04:47:43;;;;;;;;;;;;;;;;;;2118109;27;19924;-42
2021/11/10 04:48:44;;;;;;;;;;;;;;;;;;2119398;27;20023;-42
2021/11/10 04:49:45;;;;;;;;;;;;;;;;;;2114900;28;19923;-42
2021/11/10 04:50:47;;;;;;;;;;;;;;;;;;2117178;28;19962;-43
2021/11/10 04:51:48;;;;;;;;;;;;;;;;;;2121940;28;19982;-42
2021/11/10 04:52:48;;;;;;;;;;;;;;;;;;2123454;28;20380;-42
2021/11/10 04:53:49;;;;;;;;;;;;;;;;;;2120424;28;20464;-42
2021/11/10 04:54:50;;;;;;;;;;;;;;;;;;2123582;27;19984;-42
2021/11/10 04:55:51;;;;;;;;;;;;;;;;;;2123290;28;19963;-42
2021/11/10 04:56:52;;;;;;;;;;;;;;;;;;2124167;27;19927;-42
2021/11/10 04:57:53;;;;;;;;;;;;;;;;;;2115644;28;19950;-42
2021/11/10 04:58:54;;;;;;;;;;;;;;;;;;2114772;28;19928;-42
2021/11/10 04:59:54;;;;;;;;;;;;;;;;;;2119120;27;19923;-42
2021/11/10 05:00:55;;;;;;;;;;;;;;;;;;2123262;28;19928;-42
2021/11/10 05:02:23;;;;;;;;;;;;;;;;;;2122385;27;20433;-42
2021/11/10 05:03:24;;;;;;;;;;;;;;;;;;2124484;27;19923;-42
2021/11/10 05:04:25;;;;;;;;;;;;;;;;;;2131902;27;20376;-42
2021/11/10 05:05:26;;;;;;;;;;;;;;;;;;2127130;27;19927;-42
2021/11/10 05:06:27;;;;;;;;;;;;;;;;;;2120477;27;20469;-42
2021/11/10 05:07:28;;;;;;;;;;;;;;;;;;2114627;28;19949;-42
2021/11/10 05:08:29;;;;;;;;;;;;;;;;;;2116593;28;20018;-42
2021/11/10 05:09:30;;;;;;;;;;;;;;;;;;2129559;27;19923;-42
2021/11/10 05:10:31;;;;;;;;;;;;;;;;;;2131798;27;19923;-42
2021/11/10 05:11:32;;;;;;;;;;;;;;;;;;2124850;27;19928;-42
2021/11/10 05:12:33;;;;;;;;;;;;;;;;;;2130093;27;19923;-43
2021/11/10 05:13:33;;;;;;;;;;;;;;;;;;2131798;27;20033;-42
2021/11/10 05:14:34;;;;;;;;;;;;;;;;;;2124652;27;19924;-42
2021/11/10 05:15:35;;;;;;;;;;;;;;;;;;2121772;28;19953;-42
2021/11/10 05:16:36;;;;;;;;;;;;;;;;;;2122600;28;20364;-42
2021/11/10 05:17:37;;;;;;;;;;;;;;;;;;2120231;28;19992;-42
2021/11/10 05:18:38;;;;;;;;;;;;;;;;;;2122146;28;19927;-47
2021/11/10 05:19:38;;;;;;;;;;;;;;;;;;2123145;28;19924;-47
2021/11/10 05:20:49;;;;;;;;;;;;;;;;;;2121311;27;20018;-49
2021/11/10 05:21:50;;;;;;;;;;;;;;;;;;2131752;27;20018;-46
2021/11/10 05:22:51;;;;;;;;;;;;;;;;;;2131643;27;19930;-47
2021/11/10 05:23:51;;;;;;;;;;;;;;;;;;2119809;27;19924;-46
2021/11/10 05:24:52;;;;;;;;;;;;;;;;;;2123183;28;20372;-49
2021/11/10 05:25:53;;;;;;;;;;;;;;;;;;2122593;28;19928;-47
2021/11/10 05:26:54;;;;;;;;;;;;;;;;;;2122361;27;19972;-47
2021/11/10 05:27:55;;;;;;;;;;;;;;;;;;2114621;28;20025;-47
2021/11/10 05:28:56;;;;;;;;;;;;;;;;;;2115450;28;19931;-47
2021/11/10 05:29:56;;;;;;;;;;;;;;;;;;2121725;27;19924;-46
2021/11/10 05:30:57;;;;;;;;;;;;;;;;;;2114702;28;19981;-46
2021/11/10 05:32:00;;;;;;;;;;;;;;;;;;2115312;28;19924;-46
2021/11/10 05:33:01;;;;;;;;;;;;;;;;;;2125390;27;19923;-46
2021/11/10 05:34:03;;;;;;;;;;;;;;;;;;2123069;28;19930;-48
2021/11/10 05:35:04;;;;;;;;;;;;;;;;;;2121138;28;19924;-49
2021/11/10 05:36:05;;;;;;;;;;;;;;;;;;2118077;28;20027;-46
2021/11/10 05:37:09;;;;;;;;;;;;;;;;;;2114745;28;20392;-42
2021/11/10 05:38:10;;;;;;;;;;;;;;;;;;2117740;27;19923;-42
2021/11/10 05:39:11;;;;;;;;;;;;;;;;;;2121542;28;19927;-42
2021/11/10 05:40:12;;;;;;;;;;;;;;;;;;2123009;28;20399;-42
2021/11/10 05:41:13;;;;;;;;;;;;;;;;;;2122177;27;20002;-43
2021/11/10 05:42:14;;;;;;;;;;;;;;;;;;2121044;28;19923;-42
2021/11/10 05:43:15;;;;;;;;;;;;;;;;;;2122909;28;19923;-42
2021/11/10 05:44:16;;;;;;;;;;;;;;;;;;2121335;27;19922;-42
2021/11/10 05:45:17;;;;;;;;;;;;;;;;;;2122531;28;19927;-42
2021/11/10 05:46:18;;;;;;;;;;;;;;;;;;2123204;28;19928;-42
2021/11/10 05:47:19;;;;;;;;;;;;;;;;;;2123949;27;19927;-42
2021/11/10 05:48:19;;;;;;;;;;;;;;;;;;2122981;28;20321;-43
2021/11/10 05:49:20;;;;;;;;;;;;;;;;;;2123039;28;19946;-43
2021/11/10 05:50:21;;;;;;;;;;;;;;;;;;2123761;27;19927;-42
2021/11/10 05:51:22;;;;;;;;;;;;;;;;;;2114577;28;20001;-42
2021/11/10 05:52:23;;;;;;;;;;;;;;;;;;2114324;28;19931;-42
2021/11/10 05:53:23;;;;;;;;;;;;;;;;;;2118478;28;19946;-42
2021/11/10 05:54:24;;;;;;;;;;;;;;;;;;2122975;28;19923;-43
2021/11/10 05:55:25;;;;;;;;;;;;;;;;;;2123104;28;19962;-43
2021/11/10 05:56:27;;;;;;;;;;;;;;;;;;2120469;27;19942;-43
2021/11/10 05:57:28;;;;;;;;;;;;;;;;;;2123016;28;20014;-42
2021/11/10 05:58:30;;;;;;;;;;;;;;;;;;2122514;28;20312;-42
2021/11/10 05:59:30;;;;;;;;;;;;;;;;;;2119947;28;19930;-42
2021/11/10 06:00:31;;;;;;;;;;;;;;;;;;2122944;28;19923;-42
2021/11/10 06:01:32;;;;;;;;;;;;;;;;;;2122591;28;19976;-42
2021/11/10 06:02:33;;;;;;;;;;;;;;;;;;2120736;27;19924;-42
2021/11/10 06:03:34;;;;;;;;;;;;;;;;;;2121560;28;19924;-42
2021/11/10 06:04:35;;;;;;;;;;;;;;;;;;2121969;28;19972;-42
2021/11/10 06:05:36;;;;;;;;;;;;;;;;;;2120292;28;19923;-41
2021/11/10 06:06:36;;;;;;;;;;;;;;;;;;2123087;28;19927;-43
2021/11/10 06:07:37;;;;;;;;;;;;;;;;;;2121339;28;19931;-42
2021/11/10 06:08:38;;;;;;;;;;;;;;;;;;2122076;27;19968;-43
2021/11/10 06:09:40;;;;;;;;;;;;;;;;;;2122922;28;20292;-43
2021/11/10 06:10:41;;;;;;;;;;;;;;;;;;2122288;27;19924;-43
2021/11/10 06:11:44;;;;;;;;;;;;;;;;;;2120539;27;19934;-43
2021/11/10 06:12:45;;;;;;;;;;;;;;;;;;2114664;28;20015;-47
2021/11/10 06:13:45;;;;;;;;;;;;;;;;;;2117793;28;19930;-47
2021/11/10 06:14:46;;;;;;;;;;;;;;;;;;2130887;27;19923;-50
2021/11/10 06:15:47;;;;;;;;;;;;;;;;;;2133229;27;19927;-47
2021/11/10 06:16:48;;;;;;;;;;;;;;;;;;2127127;27;19924;-48
2021/11/10 06:17:49;;;;;;;;;;;;;;;;;;2122869;28;19923;-49
2021/11/10 06:18:50;;;;;;;;;;;;;;;;;;2124370;28;19923;-49
2021/11/10 06:19:50;;;;;;;;;;;;;;;;;;2123334;27;19946;-47
2021/11/10 06:20:51;;;;;;;;;;;;;;;;;;2123983;28;20317;-47
2021/11/10 06:21:52;;;;;;;;;;;;;;;;;;2124416;28;19924;-48
2021/11/10 06:22:53;;;;;;;;;;;;;;;;;;2125408;27;20360;-51
2021/11/10 06:23:54;;;;;;;;;;;;;;;;;;2123163;28;20551;-47
2021/11/10 06:24:55;;;;;;;;;;;;;;;;;;2124379;28;19928;-48
2021/11/10 06:25:59;;;;;;;;;;;;;;;;;;2121580;27;20002;-49
2021/11/10 06:27:00;;;;;;;;;;;;;;;;;;2124321;28;19923;-48
2021/11/10 06:28:01;;;;;;;;;;;;;;;;;;2124191;28;20316;-48
2021/11/10 06:29:02;;;;;;;;;;;;;;;;;;2121841;27;19939;-47
2021/11/10 06:30:03;;;;;;;;;;;;;;;;;;2124308;28;20308;-47
2021/11/10 06:31:03;;;;;;;;;;;;;;;;;;2124301;28;19946;-47
2021/11/10 06:32:05;;;;;;;;;;;;;;;;;;2123972;27;19930;-48
2021/11/10 06:33:05;;;;;;;;;;;;;;;;;;2115704;28;20362;-48
2021/11/10 06:34:06;;;;;;;;;;;;;;;;;;2115664;28;19924;-49
2021/11/10 06:35:07;;;;;;;;;;;;;;;;;;2120154;28;19934;-48
2021/11/10 06:36:08;;;;;;;;;;;;;;;;;;2115714;28;19965;-47
2021/11/10 06:37:11;;;;;;;;;;;;;;;;;;2116682;28;19966;-43
2021/11/10 06:38:12;;;;;;;;;;;;;;;;;;2122586;28;19930;-43
2021/11/10 06:39:13;;;;;;;;;;;;;;;;;;2124146;28;19962;-42
2021/11/10 06:40:13;;;;;;;;;;;;;;;;;;2123274;27;19955;-42
2021/11/10 06:41:18;;;;;;;;;;;;;;;;;;2122651;28;19966;-43
2021/11/10 06:42:19;;;;;;;;;;;;;;;;;;2124222;28;20396;-43
2021/11/10 06:43:20;;;;;;;;;;;;;;;;;;2124652;27;19935;-43
2021/11/10 06:44:20;;;;;;;;;;;;;;;;;;2117203;27;19973;-43
2021/11/10 06:45:21;;;;;;;;;;;;;;;;;;2115705;28;19924;-42
2021/11/10 06:46:22;;;;;;;;;;;;;;;;;;2119326;27;19945;-43
2021/11/10 06:47:23;;;;;;;;;;;;;;;;;;2124124;28;19931;-43
2021/11/10 06:48:25;;;;;;;;;;;;;;;;;;2124090;28;19930;-47
2021/11/10 06:49:26;;;;;;;;;;;;;;;;;;2125079;27;19934;-48
2021/11/10 06:50:27;;;;;;;;;;;;;;;;;;2115505;28;19924;-52
2021/11/10 06:51:28;;;;;;;;;;;;;;;;;;2115600;28;19980;-49
2021/11/10 06:52:28;;;;;;;;;;;;;;;;;;2120536;27;19924;-51
2021/11/10 06:53:29;;;;;;;;;;;;;;;;;;2124159;28;19945;-48
2021/11/10 06:54:31;;;;;;;;;;;;;;;;;;2124160;28;19923;-48
2021/11/10 06:55:32;;;;;;;;;;;;;;;;;;2123642;27;20370;-51
2021/11/10 06:56:33;;;;;;;;;;;;;;;;;;2115783;28;19967;-48
2021/11/10 06:57:34;;;;;;;;;;;;;;;;;;2115424;28;19945;-45